createdAt,value
2019-02-09T00:01:34.063Z,100647.05
2019-02-09T00:02:41.793Z,100639.98
2019-02-09T00:03:49.311Z,100642.59
2019-02-09T00:04:56.453Z,100638.20
2019-02-09T00:06:02.894Z,100640.45
2019-02-09T00:07:08.964Z,100634.75
2019-02-09T00:08:15.916Z,100634.41
2019-02-09T00:09:22.938Z,100634.75
2019-02-09T00:10:29.684Z,100634.25
2019-02-09T00:11:38.922Z,100631.58
2019-02-09T00:12:48.090Z,100628.88
2019-02-09T00:13:54.710Z,100633.61
2019-02-09T00:15:01.976Z,100624.89
2019-02-09T00:16:08.683Z,100622.70
2019-02-09T00:17:15.483Z,100627.88
2019-02-09T00:18:22.570Z,100632.56
2019-02-09T00:19:29.792Z,100622.53
2019-02-09T00:20:37.141Z,100624.31
2019-02-09T00:21:45.062Z,100620.47
2019-02-09T00:22:52.484Z,100624.80
2019-02-09T00:23:59.309Z,100617.73
2019-02-09T00:25:16.726Z,100621.70
2019-02-09T00:26:22.732Z,100620.05
2019-02-09T00:27:29.708Z,100609.64
2019-02-09T00:28:37.112Z,100607.09
2019-02-09T00:29:49.286Z,100604.55
2019-02-09T00:30:55.315Z,100610.27
2019-02-09T00:32:02.762Z,100605.94
2019-02-09T00:33:09.218Z,100603.01
2019-02-09T00:34:16.281Z,100607.41
2019-02-09T00:35:23.359Z,100601.35
2019-02-09T00:36:30.633Z,100600.90
2019-02-09T00:37:36.999Z,100602.27
2019-02-09T00:38:43.544Z,100600.45
2019-02-09T00:39:50.725Z,100594.28
2019-02-09T00:40:57.978Z,100598.59
2019-02-09T00:42:05.300Z,100592.47
2019-02-09T00:43:12.233Z,100597.28
2019-02-09T00:44:18.468Z,100594.19
2019-02-09T00:45:26.639Z,100597.70
2019-02-09T00:46:32.715Z,100595.02
2019-02-09T00:47:39.423Z,100598.13
2019-02-09T00:48:46.268Z,100593.45
2019-02-09T00:49:53.979Z,100590.42
2019-02-09T00:51:01.668Z,100590.42
2019-02-09T00:52:08.701Z,100585.68
2019-02-09T00:53:15.375Z,100585.20
2019-02-09T00:54:22.085Z,100580.39
2019-02-09T00:55:30.177Z,100580.01
2019-02-09T00:56:36.508Z,100579.19
2019-02-09T00:57:42.745Z,100574.44
2019-02-09T00:58:49.192Z,100569.69
2019-02-09T00:59:55.878Z,100568.83
2019-02-09T01:01:03.326Z,100566.22
2019-02-09T01:02:10.067Z,100559.69
2019-02-09T01:03:16.954Z,100562.20
2019-02-09T01:04:23.512Z,100560.42
2019-02-09T01:05:40.338Z,100557.81
2019-02-09T01:06:46.708Z,100548.23
2019-02-09T01:07:53.760Z,100551.73
2019-02-09T01:09:00.250Z,100546.45
2019-02-09T01:10:11.719Z,100540.34
2019-02-09T01:11:18.199Z,100541.70
2019-02-09T01:12:24.913Z,100542.63
2019-02-09T01:13:31.462Z,100539.09
2019-02-09T01:14:39.081Z,100540.02
2019-02-09T01:15:47.161Z,100536.98
2019-02-09T01:16:53.603Z,100535.33
2019-02-09T01:18:00.095Z,100540.22
2019-02-09T01:19:07.086Z,100535.89
2019-02-09T01:20:23.295Z,100539.33
2019-02-09T01:21:30.769Z,100532.00
2019-02-09T01:22:38.927Z,100527.73
2019-02-09T01:23:45.295Z,100525.53
2019-02-09T01:24:52.983Z,100518.25
2019-02-09T01:25:59.779Z,100520.06
2019-02-09T01:27:06.413Z,100519.70
2019-02-09T01:28:12.592Z,100513.65
2019-02-09T01:29:18.732Z,100511.03
2019-02-09T01:30:30.317Z,100505.84
2019-02-09T01:31:37.878Z,100504.17
2019-02-09T01:32:44.056Z,100509.01
2019-02-09T01:33:50.195Z,100495.64
2019-02-09T01:34:56.764Z,100488.44
2019-02-09T01:36:03.730Z,100486.39
2019-02-09T01:37:10.338Z,100482.52
2019-02-09T01:38:25.365Z,100483.55
2019-02-09T01:39:33.837Z,100480.07
2019-02-09T01:40:40.448Z,100477.52
2019-02-09T01:41:46.947Z,100476.81
2019-02-09T01:42:53.621Z,100476.95
2019-02-09T01:44:00.583Z,100469.05
2019-02-09T01:45:12.287Z,100472.58
2019-02-09T01:46:18.920Z,100472.21
2019-02-09T01:47:26.048Z,100462.70
2019-02-09T01:48:33.287Z,100457.91
2019-02-09T01:49:39.877Z,100459.69
2019-02-09T01:50:46.797Z,100452.74
2019-02-09T01:51:53.101Z,100455.43
2019-02-09T01:53:01.668Z,100455.95
2019-02-09T01:54:07.462Z,100456.03
2019-02-09T01:55:14.023Z,100444.69
2019-02-09T01:56:20.683Z,100439.09
2019-02-09T01:57:26.549Z,100450.04
2019-02-09T01:58:33.572Z,100443.09
2019-02-09T01:59:41.831Z,100440.47
2019-02-09T02:00:47.964Z,100447.90
2019-02-09T02:01:55.143Z,100449.67
2019-02-09T02:03:01.390Z,100443.16
2019-02-09T02:04:08.056Z,100443.58
2019-02-09T02:05:16.956Z,100437.93
2019-02-09T02:06:26.589Z,100438.45
2019-02-09T02:07:37.623Z,100434.97
2019-02-09T02:08:55.571Z,100435.49
2019-02-09T02:10:23.883Z,100435.49
2019-02-09T02:11:30.402Z,100427.23
2019-02-09T02:12:36.395Z,100428.13
2019-02-09T02:13:42.879Z,100427.17
2019-02-09T02:14:49.876Z,100421.48
2019-02-09T02:15:56.742Z,100416.30
2019-02-09T02:17:02.756Z,100423.73
2019-02-09T02:18:09.981Z,100416.25
2019-02-09T02:19:16.519Z,100415.36
2019-02-09T02:20:34.092Z,100414.05
2019-02-09T02:21:41.159Z,100408.33
2019-02-09T02:22:49.133Z,100412.30
2019-02-09T02:23:55.712Z,100406.55
2019-02-09T02:25:03.070Z,100401.38
2019-02-09T02:26:11.171Z,100405.25
2019-02-09T02:27:18.548Z,100399.59
2019-02-09T02:28:25.188Z,100404.41
2019-02-09T02:29:32.070Z,100405.72
2019-02-09T02:30:40.036Z,100398.23
2019-02-09T02:31:47.449Z,100396.09
2019-02-09T02:32:53.890Z,100394.31
2019-02-09T02:33:59.682Z,100401.80
2019-02-09T02:35:09.332Z,100395.67
2019-02-09T02:36:15.673Z,100392.17
2019-02-09T02:37:21.984Z,100397.80
2019-02-09T02:38:28.502Z,100392.57
2019-02-09T02:39:35.688Z,100390.38
2019-02-09T02:40:42.253Z,100389.41
2019-02-09T02:41:49.016Z,100382.36
2019-02-09T02:42:55.516Z,100387.52
2019-02-09T02:44:02.342Z,100388.88
2019-02-09T02:45:16.071Z,100384.90
2019-02-09T02:46:24.213Z,100375.70
2019-02-09T02:47:30.959Z,100372.61
2019-02-09T02:48:37.291Z,100369.56
2019-02-09T02:49:44.014Z,100375.68
2019-02-09T02:50:50.903Z,100369.56
2019-02-09T02:51:58.498Z,100366.53
2019-02-09T02:53:05.149Z,100366.08
2019-02-09T02:54:11.603Z,100366.97
2019-02-09T02:55:27.284Z,100371.41
2019-02-09T02:56:33.924Z,100368.80
2019-02-09T02:57:41.052Z,100368.38
2019-02-09T02:58:47.783Z,100370.47
2019-02-09T02:59:54.228Z,100369.09
2019-02-09T03:01:00.754Z,100367.31
2019-02-09T03:02:08.072Z,100369.91
2019-02-09T03:03:14.555Z,100365.05
2019-02-09T03:04:21.834Z,100369.80
2019-02-09T03:05:28.576Z,100369.78
2019-02-09T03:06:34.858Z,100372.81
2019-02-09T03:07:41.650Z,100361.89
2019-02-09T03:08:49.440Z,100371.92
2019-02-09T03:09:55.808Z,100364.09
2019-02-09T03:11:02.029Z,100362.31
2019-02-09T03:12:08.595Z,100363.61
2019-02-09T03:13:15.721Z,100363.66
2019-02-09T03:14:22.008Z,100359.34
2019-02-09T03:15:37.035Z,100358.44
2019-02-09T03:16:43.946Z,100364.56
2019-02-09T03:17:49.919Z,100356.24
2019-02-09T03:18:56.159Z,100357.55
2019-02-09T03:20:03.517Z,100351.02
2019-02-09T03:21:10.355Z,100361.08
2019-02-09T03:22:16.386Z,100354.54
2019-02-09T03:23:23.085Z,100358.02
2019-02-09T03:24:30.444Z,100357.13
2019-02-09T03:25:49.845Z,100349.23
2019-02-09T03:27:11.293Z,100352.27
2019-02-09T03:28:23.392Z,100346.14
2019-02-09T03:29:49.705Z,100351.31
2019-02-09T03:31:06.300Z,100355.28
2019-02-09T03:32:20.130Z,100346.50
2019-02-09T03:33:27.874Z,100343.00
2019-02-09T03:34:34.242Z,100344.78
2019-02-09T03:35:40.427Z,100333.85
2019-02-09T03:36:46.707Z,100344.83
2019-02-09T03:37:53.662Z,100341.75
2019-02-09T03:39:00.468Z,100339.60
2019-02-09T03:40:15.549Z,100339.97
2019-02-09T03:41:22.351Z,100336.47
2019-02-09T03:42:29.631Z,100328.61
2019-02-09T03:43:37.915Z,100332.95
2019-02-09T03:44:44.803Z,100328.61
2019-02-09T03:45:58.908Z,100322.08
2019-02-09T03:47:20.215Z,100319.11
2019-02-09T03:48:28.617Z,100316.98
2019-02-09T03:49:34.730Z,100314.84
2019-02-09T03:50:43.061Z,100315.27
2019-02-09T03:51:50.016Z,100314.84
2019-02-09T03:52:57.151Z,100311.29
2019-02-09T03:54:05.116Z,100311.29
2019-02-09T03:55:11.952Z,100313.06
2019-02-09T03:56:32.974Z,100315.73
2019-02-09T03:57:51.467Z,100314.42
2019-02-09T03:59:15.366Z,100306.16
2019-02-09T04:00:54.760Z,100314.03
2019-02-09T04:02:03.046Z,100307.96
2019-02-09T04:03:09.529Z,100302.31
2019-02-09T04:04:16.033Z,100302.78
2019-02-09T04:05:22.625Z,100303.25
2019-02-09T04:06:29.559Z,100299.77
2019-02-09T04:07:37.511Z,100298.94
2019-02-09T04:08:45.654Z,100298.09
2019-02-09T04:09:57.191Z,100301.18
2019-02-09T04:11:25.012Z,100292.98
2019-02-09T04:12:32.051Z,100299.98
2019-02-09T04:13:38.814Z,100284.20
2019-02-09T04:14:53.200Z,100292.52
2019-02-09T04:15:59.213Z,100288.17
2019-02-09T04:17:06.979Z,100287.23
2019-02-09T04:18:19.626Z,100285.91
2019-02-09T04:19:33.146Z,100278.96
2019-02-09T04:20:39.598Z,100276.30
2019-02-09T04:21:47.052Z,100267.52
2019-02-09T04:22:54.153Z,100268.80
2019-02-09T04:24:04.124Z,100267.08
2019-02-09T04:25:14.627Z,100265.36
2019-02-09T04:26:24.999Z,100269.29
2019-02-09T04:27:34.132Z,100267.14
2019-02-09T04:28:40.699Z,100262.81
2019-02-09T04:29:47.538Z,100263.70
2019-02-09T04:30:53.931Z,100261.52
2019-02-09T04:32:01.047Z,100266.74
2019-02-09T04:33:16.460Z,100264.23
2019-02-09T04:34:28.729Z,100260.31
2019-02-09T04:35:35.730Z,100263.81
2019-02-09T04:36:42.926Z,100251.63
2019-02-09T04:37:49.172Z,100248.66
2019-02-09T04:38:55.527Z,100250.75
2019-02-09T04:40:02.010Z,100249.87
2019-02-09T04:41:09.069Z,100238.56
2019-02-09T04:42:15.240Z,100239.40
2019-02-09T04:43:21.851Z,100233.70
2019-02-09T04:44:27.977Z,100232.81
2019-02-09T04:45:34.900Z,100242.36
2019-02-09T04:46:41.290Z,100235.84
2019-02-09T04:47:48.037Z,100227.05
2019-02-09T04:48:58.014Z,100223.59
2019-02-09T04:50:05.684Z,100220.94
2019-02-09T04:51:12.782Z,100224.39
2019-02-09T04:52:19.176Z,100216.55
2019-02-09T04:53:26.010Z,100214.80
2019-02-09T04:54:32.202Z,100216.06
2019-02-09T04:55:40.857Z,100214.70
2019-02-09T04:56:47.265Z,100211.20
2019-02-09T04:57:57.426Z,100220.82
2019-02-09T04:59:04.258Z,100211.20
2019-02-09T05:00:23.845Z,100211.67
2019-02-09T05:01:30.717Z,100202.46
2019-02-09T05:02:37.493Z,100200.75
2019-02-09T05:03:45.863Z,100191.59
2019-02-09T05:04:52.694Z,100192.01
2019-02-09T05:05:59.007Z,100200.31
2019-02-09T05:07:05.564Z,100199.02
2019-02-09T05:08:13.019Z,100199.36
2019-02-09T05:09:20.042Z,100201.09
2019-02-09T05:10:27.473Z,100192.73
2019-02-09T05:11:34.151Z,100195.77
2019-02-09T05:12:41.188Z,100191.42
2019-02-09T05:13:47.354Z,100191.42
2019-02-09T05:14:55.974Z,100189.22
2019-02-09T05:16:03.267Z,100188.70
2019-02-09T05:17:09.906Z,100193.09
2019-02-09T05:18:16.424Z,100191.84
2019-02-09T05:19:22.512Z,100182.28
2019-02-09T05:20:29.236Z,100190.13
2019-02-09T05:21:36.175Z,100181.39
2019-02-09T05:22:44.393Z,100181.39
2019-02-09T05:23:50.501Z,100181.81
2019-02-09T05:24:57.534Z,100186.67
2019-02-09T05:26:07.038Z,100184.42
2019-02-09T05:27:13.688Z,100182.70
2019-02-09T05:28:19.856Z,100178.72
2019-02-09T05:29:26.505Z,100173.02
2019-02-09T05:30:35.215Z,100170.83
2019-02-09T05:31:43.593Z,100169.98
2019-02-09T05:32:49.388Z,100171.19
2019-02-09T05:33:56.274Z,100166.00
2019-02-09T05:35:03.155Z,100167.27
2019-02-09T05:36:10.531Z,100166.84
2019-02-09T05:37:25.253Z,100169.45
2019-02-09T05:38:30.138Z,100163.86
2019-02-09T05:39:36.336Z,100164.28
2019-02-09T05:40:43.165Z,100162.13
2019-02-09T05:41:49.693Z,100162.57
2019-02-09T05:42:56.395Z,100153.00
2019-02-09T05:44:02.954Z,100152.12
2019-02-09T05:45:18.056Z,100159.95
2019-02-09T05:46:24.140Z,100155.15
2019-02-09T05:47:30.982Z,100158.66
2019-02-09T05:48:37.117Z,100151.70
2019-02-09T05:49:45.813Z,100149.55
2019-02-09T05:50:51.632Z,100151.75
2019-02-09T05:51:58.978Z,100144.28
2019-02-09T05:53:05.432Z,100147.31
2019-02-09T05:54:12.711Z,100141.60
2019-02-09T05:55:21.106Z,100137.22
2019-02-09T05:56:27.145Z,100134.60
2019-02-09T05:57:33.218Z,100131.99
2019-02-09T05:58:40.265Z,100131.16
2019-02-09T05:59:46.777Z,100125.88
2019-02-09T06:00:54.110Z,100124.57
2019-02-09T06:02:00.993Z,100123.27
2019-02-09T06:03:07.543Z,100117.16
2019-02-09T06:04:14.771Z,100115.83
2019-02-09T06:05:21.583Z,100118.45
2019-02-09T06:06:28.102Z,100114.54
2019-02-09T06:07:35.418Z,100119.81
2019-02-09T06:08:42.198Z,100117.67
2019-02-09T06:09:48.976Z,100111.55
2019-02-09T06:10:55.709Z,100106.33
2019-02-09T06:12:02.685Z,100108.05
2019-02-09T06:13:09.402Z,100104.20
2019-02-09T06:14:15.907Z,100101.16
2019-02-09T06:15:27.139Z,100092.48
2019-02-09T06:16:34.030Z,100096.36
2019-02-09T06:17:41.483Z,100094.20
2019-02-09T06:18:48.685Z,100089.34
2019-02-09T06:19:55.932Z,100090.23
2019-02-09T06:21:02.054Z,100094.20
2019-02-09T06:22:08.284Z,100093.31
2019-02-09T06:23:15.643Z,100088.97
2019-02-09T06:24:22.037Z,100085.05
2019-02-09T06:25:29.899Z,100085.91
2019-02-09T06:26:36.598Z,100085.48
2019-02-09T06:27:43.484Z,100081.98
2019-02-09T06:28:50.446Z,100078.95
2019-02-09T06:29:56.806Z,100080.31
2019-02-09T06:31:03.505Z,100073.82
2019-02-09T06:32:10.146Z,100073.04
2019-02-09T06:33:16.149Z,100068.71
2019-02-09T06:34:23.108Z,100071.74
2019-02-09T06:35:30.219Z,100061.75
2019-02-09T06:36:36.540Z,100059.20
2019-02-09T06:37:44.411Z,100060.09
2019-02-09T06:38:50.802Z,100058.78
2019-02-09T06:39:58.040Z,100057.41
2019-02-09T06:41:04.656Z,100056.58
2019-02-09T06:42:11.085Z,100058.83
2019-02-09T06:43:18.185Z,100050.09
2019-02-09T06:44:25.210Z,100057.94
2019-02-09T06:45:31.681Z,100053.17
2019-02-09T06:46:38.851Z,100055.33
2019-02-09T06:47:44.912Z,100054.95
2019-02-09T06:48:51.048Z,100048.38
2019-02-09T06:49:58.760Z,100048.42
2019-02-09T06:51:05.691Z,100045.39
2019-02-09T06:52:12.015Z,100045.44
2019-02-09T06:53:18.106Z,100051.56
2019-02-09T06:54:26.512Z,100051.61
2019-02-09T06:55:39.411Z,100042.94
2019-02-09T06:56:46.146Z,100049.56
2019-02-09T06:57:52.740Z,100048.77
2019-02-09T06:58:59.306Z,100040.45
2019-02-09T07:00:11.493Z,100049.61
2019-02-09T07:01:17.547Z,100039.16
2019-02-09T07:02:24.315Z,100035.27
2019-02-09T07:03:57.593Z,100035.70
2019-02-09T07:09:55.803Z,100041.20
2019-02-09T07:11:02.232Z,100037.75
2019-02-09T07:12:08.753Z,100038.64
2019-02-09T07:13:16.273Z,100038.64
2019-02-09T07:14:23.413Z,100035.13
2019-02-09T07:15:38.059Z,100039.53
2019-02-09T07:16:44.045Z,100042.19
2019-02-09T07:17:51.020Z,100033.55
2019-02-09T07:18:57.549Z,100030.52
2019-02-09T07:20:06.176Z,100044.95
2019-02-09T07:21:12.379Z,100032.34
2019-02-09T07:22:19.030Z,100035.42
2019-02-09T07:23:26.241Z,100027.11
2019-02-09T07:24:33.074Z,100028.00
2019-02-09T07:25:40.034Z,100036.73
2019-02-09T07:26:46.719Z,100028.04
2019-02-09T07:27:54.426Z,100023.66
2019-02-09T07:29:01.027Z,100026.78
2019-02-09T07:30:12.429Z,100023.76
2019-02-09T07:31:19.013Z,100026.89
2019-02-09T07:32:26.339Z,100019.03
2019-02-09T07:33:32.985Z,100013.39
2019-02-09T07:34:40.182Z,100018.62
2019-02-09T07:35:46.923Z,100019.55
2019-02-09T07:36:53.588Z,100016.09
2019-02-09T07:37:59.887Z,100016.60
2019-02-09T07:39:08.976Z,100023.66
2019-02-09T07:40:23.839Z,100025.94
2019-02-09T07:41:30.029Z,100025.52
2019-02-09T07:42:36.956Z,100027.30
2019-02-09T07:43:43.617Z,100029.49
2019-02-09T07:44:50.499Z,100026.50
2019-02-09T07:45:57.157Z,100031.39
2019-02-09T07:47:03.736Z,100032.70
2019-02-09T07:48:10.347Z,100038.41
2019-02-09T07:49:17.604Z,100035.37
2019-02-09T07:50:28.707Z,100025.36
2019-02-09T07:51:34.564Z,100024.95
2019-02-09T07:52:40.458Z,100029.34
2019-02-09T07:53:47.436Z,100017.59
2019-02-09T07:54:53.630Z,100016.34
2019-02-09T07:56:00.423Z,100020.30
2019-02-09T07:57:07.023Z,100025.54
2019-02-09T07:58:13.926Z,100016.38
2019-02-09T07:59:20.430Z,100013.37
2019-02-09T08:00:33.311Z,100015.16
2019-02-09T08:01:39.894Z,100014.34
2019-02-09T08:02:47.421Z,100016.55
2019-02-09T08:03:53.912Z,100000.03
2019-02-09T08:05:02.705Z,100002.66
2019-02-09T08:06:09.042Z,99997.88
2019-02-09T08:07:16.633Z,99991.38
2019-02-09T08:08:23.854Z,100005.78
2019-02-09T08:09:31.874Z,99994.88
2019-02-09T08:10:40.088Z,99997.08
2019-02-09T08:11:46.279Z,99996.61
2019-02-09T08:12:52.729Z,99987.91
2019-02-09T08:13:59.946Z,99996.66
2019-02-09T08:15:10.943Z,99985.30
2019-02-09T08:16:18.311Z,99990.11
2019-02-09T08:17:25.662Z,99998.00
2019-02-09T08:18:32.043Z,99988.45
2019-02-09T08:19:38.996Z,99995.04
2019-02-09T08:20:45.583Z,99986.77
2019-02-09T08:21:54.845Z,99976.33
2019-02-09T08:23:22.100Z,99975.94
2019-02-09T08:24:28.860Z,99976.86
2019-02-09T08:25:39.109Z,99973.05
2019-02-09T08:26:45.929Z,99976.59
2019-02-09T08:28:17.397Z,99986.67
2019-02-09T08:29:29.861Z,99965.76
2019-02-09T08:30:42.860Z,99957.55
2019-02-09T08:31:50.088Z,99968.05
2019-02-09T08:32:57.608Z,99961.55
2019-02-09T08:34:05.182Z,99958.08
2019-02-09T08:35:12.302Z,99962.04
2019-02-09T08:36:19.320Z,99955.98
2019-02-09T08:37:27.815Z,99949.89
2019-02-09T08:38:34.769Z,99947.73
2019-02-09T08:39:42.089Z,99949.53
2019-02-09T08:40:49.690Z,99939.94
2019-02-09T08:41:56.770Z,99939.97
2019-02-09T08:43:03.362Z,99935.19
2019-02-09T08:44:10.109Z,99935.64
2019-02-09T08:45:21.394Z,99939.17
2019-02-09T08:46:28.000Z,99939.66
2019-02-09T08:47:34.860Z,99934.03
2019-02-09T08:48:41.203Z,99940.16
2019-02-09T08:49:47.849Z,99952.89
2019-02-09T08:51:01.966Z,99942.44
2019-02-09T08:52:09.767Z,99948.17
2019-02-09T08:53:16.964Z,99948.20
2019-02-09T08:54:23.115Z,99949.08
2019-02-09T08:55:29.593Z,99938.63
2019-02-09T08:56:36.635Z,99950.02
2019-02-09T08:57:43.819Z,99949.63
2019-02-09T08:58:50.621Z,99943.95
2019-02-09T08:59:58.359Z,99949.68
2019-02-09T09:01:05.259Z,99953.67
2019-02-09T09:02:20.210Z,99951.08
2019-02-09T09:03:21.118Z,99948.05
2019-02-09T09:04:29.269Z,99945.91
2019-02-09T09:05:35.621Z,99941.58
2019-02-09T09:06:42.878Z,99941.66
2019-02-09T09:07:50.423Z,99940.40
2019-02-09T09:08:57.867Z,99939.97
2019-02-09T09:10:07.160Z,99950.94
2019-02-09T09:11:13.290Z,99939.16
2019-02-09T09:12:19.504Z,99930.86
2019-02-09T09:13:25.896Z,99932.17
2019-02-09T09:14:31.863Z,99923.87
2019-02-09T09:15:51.443Z,99937.02
2019-02-09T09:16:57.387Z,99934.42
2019-02-09T09:18:03.317Z,99927.00
2019-02-09T09:19:09.477Z,99924.39
2019-02-09T09:20:27.195Z,99929.66
2019-02-09T09:21:33.216Z,99914.80
2019-02-09T09:22:41.286Z,99913.06
2019-02-09T09:23:47.304Z,99916.16
2019-02-09T09:24:53.403Z,99918.38
2019-02-09T09:26:00.223Z,99916.25
2019-02-09T09:27:07.217Z,99911.92
2019-02-09T09:28:15.582Z,99911.13
2019-02-09T09:29:21.742Z,99919.89
2019-02-09T09:30:51.924Z,99916.82
2019-02-09T09:31:58.570Z,99922.95
2019-02-09T09:33:07.023Z,99923.81
2019-02-09T09:34:13.715Z,99924.24
2019-02-09T09:35:20.896Z,99921.19
2019-02-09T09:36:27.763Z,99917.70
2019-02-09T09:37:34.983Z,99924.72
2019-02-09T09:39:58.576Z,99920.77
2019-02-09T09:41:05.911Z,99928.66
2019-02-09T09:42:12.843Z,99918.58
2019-02-09T09:43:20.163Z,99916.38
2019-02-09T09:44:26.842Z,99919.03
2019-02-09T09:45:38.024Z,99916.86
2019-02-09T09:46:43.823Z,99934.83
2019-02-09T09:47:49.963Z,99930.44
2019-02-09T09:48:56.184Z,99934.40
2019-02-09T09:50:02.436Z,99936.59
2019-02-09T09:51:08.176Z,99930.00
2019-02-09T09:52:14.356Z,99931.77
2019-02-09T09:53:21.278Z,99938.36
2019-02-09T09:54:27.542Z,99937.48
2019-02-09T09:55:33.723Z,99931.78
2019-02-09T09:56:40.102Z,99939.69
2019-02-09T09:57:46.116Z,99936.16
2019-02-09T09:58:52.849Z,99920.84
2019-02-09T09:59:59.584Z,99926.97
2019-02-09T10:01:06.203Z,99915.61
2019-02-09T10:02:13.238Z,99926.98
2019-02-09T10:03:20.556Z,99932.24
2019-02-09T10:04:27.755Z,99940.09
2019-02-09T10:05:34.624Z,99930.91
2019-02-09T10:06:41.431Z,99923.48
2019-02-09T10:07:48.521Z,99927.41
2019-02-09T10:08:55.907Z,99926.92
2019-02-09T10:10:02.396Z,99925.18
2019-02-09T10:11:08.962Z,99911.17
2019-02-09T10:12:16.143Z,99923.44
2019-02-09T10:13:22.802Z,99921.30
2019-02-09T10:14:29.943Z,99923.48
2019-02-09T10:15:36.742Z,99920.86
2019-02-09T10:16:42.623Z,99929.58
2019-02-09T10:17:48.695Z,99932.63
2019-02-09T10:18:54.956Z,99926.08
2019-02-09T10:20:01.302Z,99926.94
2019-02-09T10:21:07.435Z,99926.88
2019-02-09T10:22:15.476Z,99928.20
2019-02-09T10:23:21.655Z,99929.95
2019-02-09T10:24:27.803Z,99931.72
2019-02-09T10:25:33.846Z,99935.22
2019-02-09T10:26:41.297Z,99930.41
2019-02-09T10:27:47.723Z,99927.75
2019-02-09T10:30:23.083Z,99923.80
2019-02-09T10:31:30.303Z,99915.88
2019-02-09T10:32:44.156Z,99908.87
2019-02-09T10:33:45.599Z,99915.91
2019-02-09T10:34:52.543Z,99924.72
2019-02-09T10:35:59.403Z,99918.17
2019-02-09T10:37:06.442Z,99922.58
2019-02-09T10:38:14.125Z,99918.67
2019-02-09T10:39:21.022Z,99923.91
2019-02-09T10:40:34.657Z,99923.94
2019-02-09T10:41:41.344Z,99916.93
2019-02-09T10:42:47.846Z,99926.13
2019-02-09T10:43:54.704Z,99913.45
2019-02-09T10:45:03.222Z,99912.58
2019-02-09T10:46:11.503Z,99916.09
2019-02-09T10:47:17.611Z,99908.66
2019-02-09T10:48:23.325Z,99913.03
2019-02-09T10:49:29.776Z,99913.03
2019-02-09T10:50:39.507Z,99899.05
2019-02-09T10:51:45.896Z,99901.25
2019-02-09T10:52:51.723Z,99896.93
2019-02-09T10:53:57.683Z,99901.36
2019-02-09T10:55:03.403Z,99896.55
2019-02-09T10:56:09.422Z,99900.49
2019-02-09T10:57:15.334Z,99895.71
2019-02-09T10:58:22.390Z,99893.95
2019-02-09T10:59:28.585Z,99903.55
2019-02-09T11:00:45.288Z,99902.26
2019-02-09T11:01:51.815Z,99905.75
2019-02-09T11:02:58.345Z,99907.52
2019-02-09T11:04:05.223Z,99907.11
2019-02-09T11:05:14.976Z,99907.11
2019-02-09T11:06:21.883Z,99905.30
2019-02-09T11:07:28.536Z,99900.00
2019-02-09T11:08:35.273Z,99903.48
2019-02-09T11:09:53.747Z,99901.25
2019-02-09T11:11:00.166Z,99897.72
2019-02-09T11:12:07.304Z,99899.48
2019-02-09T11:13:13.144Z,99897.74
2019-02-09T11:14:20.135Z,99899.93
2019-02-09T11:15:29.198Z,99905.67
2019-02-09T11:16:36.148Z,99895.20
2019-02-09T11:17:42.056Z,99896.09
2019-02-09T11:18:47.897Z,99897.88
2019-02-09T11:19:53.943Z,99892.66
2019-02-09T11:20:59.982Z,99899.20
2019-02-09T11:22:05.944Z,99892.23
2019-02-09T11:23:11.676Z,99892.23
2019-02-09T11:24:18.018Z,99882.61
2019-02-09T11:25:24.982Z,99893.55
2019-02-09T11:26:30.844Z,99896.17
2019-02-09T11:27:37.002Z,99896.60
2019-02-09T11:28:43.427Z,99896.13
2019-02-09T11:29:50.169Z,99896.09
2019-02-09T11:30:56.638Z,99899.17
2019-02-09T11:32:04.563Z,99900.03
2019-02-09T11:33:12.743Z,99905.30
2019-02-09T11:34:19.934Z,99900.03
2019-02-09T11:35:26.102Z,99898.28
2019-02-09T11:36:32.233Z,99889.06
2019-02-09T11:37:38.924Z,99888.65
2019-02-09T11:38:45.663Z,99891.70
2019-02-09T11:39:51.442Z,99893.46
2019-02-09T11:40:58.622Z,99895.23
2019-02-09T11:42:05.284Z,99892.63
2019-02-09T11:43:11.943Z,99888.67
2019-02-09T11:44:17.815Z,99894.81
2019-02-09T11:45:33.024Z,99889.57
2019-02-09T11:46:39.943Z,99897.88
2019-02-09T11:47:46.043Z,99898.30
2019-02-09T11:48:51.783Z,99894.78
2019-02-09T11:49:58.520Z,99898.73
2019-02-09T11:51:04.505Z,99895.64
2019-02-09T11:52:10.816Z,99897.39
2019-02-09T11:53:16.695Z,99891.69
2019-02-09T11:54:22.904Z,99897.81
2019-02-09T11:55:28.810Z,99894.72
2019-02-09T11:56:36.315Z,99893.80
2019-02-09T11:57:42.624Z,99889.42
2019-02-09T11:58:48.882Z,99899.05
2019-02-09T11:59:54.823Z,99896.89
2019-02-09T12:01:01.698Z,99897.38
2019-02-09T12:02:08.456Z,99903.96
2019-02-09T12:03:16.336Z,99900.03
2019-02-09T12:04:23.863Z,99896.98
2019-02-09T12:05:30.555Z,99904.91
2019-02-09T12:06:37.815Z,99899.22
2019-02-09T12:07:45.242Z,99905.80
2019-02-09T12:08:52.019Z,99901.87
2019-02-09T12:09:59.815Z,99907.19
2019-02-09T12:11:06.939Z,99901.55
2019-02-09T12:12:14.009Z,99901.19
2019-02-09T12:13:21.122Z,99902.09
2019-02-09T12:14:28.016Z,99898.58
2019-02-09T12:15:39.616Z,99895.09
2019-02-09T12:16:45.824Z,99898.58
2019-02-09T12:17:55.362Z,99894.19
2019-02-09T12:19:01.313Z,99898.59
2019-02-09T12:20:19.263Z,99897.30
2019-02-09T12:21:27.263Z,99903.89
2019-02-09T12:22:34.075Z,99897.35
2019-02-09T12:23:40.368Z,99903.50
2019-02-09T12:24:46.480Z,99892.53
2019-02-09T12:25:52.629Z,99888.17
2019-02-09T12:26:58.783Z,99895.61
2019-02-09T12:28:07.675Z,99895.61
2019-02-09T12:29:14.083Z,99889.48
2019-02-09T12:30:26.483Z,99898.69
2019-02-09T12:31:32.523Z,99887.75
2019-02-09T12:32:40.022Z,99894.36
2019-02-09T12:33:46.157Z,99889.55
2019-02-09T12:34:52.862Z,99889.10
2019-02-09T12:36:00.062Z,99885.63
2019-02-09T12:37:08.467Z,99885.17
2019-02-09T12:38:19.404Z,99893.05
2019-02-09T12:39:26.395Z,99897.47
2019-02-09T12:40:35.318Z,99882.56
2019-02-09T12:41:42.043Z,99893.54
2019-02-09T12:43:36.022Z,99892.23
2019-02-09T12:44:47.196Z,99878.19
2019-02-09T12:46:37.344Z,99883.45
2019-02-09T12:47:48.284Z,99884.37
2019-02-09T12:48:54.057Z,99889.20
2019-02-09T12:49:59.736Z,99889.64
2019-02-09T12:51:06.942Z,99879.09
2019-02-09T12:52:14.783Z,99893.17
2019-02-09T12:53:20.875Z,99887.44
2019-02-09T12:54:28.556Z,99887.45
2019-02-09T12:55:34.664Z,99890.52
2019-02-09T12:56:40.823Z,99887.00
2019-02-09T12:57:46.410Z,99886.13
2019-02-09T12:58:52.842Z,99886.59
2019-02-09T13:00:00.264Z,99883.94
2019-02-09T13:01:07.803Z,99884.83
2019-02-09T13:02:14.803Z,99887.45
2019-02-09T13:03:31.265Z,99888.31
2019-02-09T13:04:35.668Z,99887.89
2019-02-09T13:05:42.143Z,99894.05
2019-02-09T13:06:48.282Z,99884.39
2019-02-09T13:07:54.937Z,99880.44
2019-02-09T13:09:01.137Z,99881.30
2019-02-09T13:10:12.773Z,99887.00
2019-02-09T13:11:20.782Z,99885.70
2019-02-09T13:12:27.063Z,99886.12